• Join FlightAware (Why Join?)
  • Login
  • US Flag 
08:19AM EDT


 

Airport Tracker/Info


-or-


 

Live Flight TrackerFlight Track Log ✈ AER41 ✈ 17-May-2013 ✈ PANC - PACV / CDV

Flight Track Log - Related Links

Times and Time Zones

All times are in EDT time to prevent confusion due to time zone crossing. See the AER41 flight status page for this flight to view local times or setup timezone preferences in your user account.

Time Position Orientation Groundspeed Altitude Reporting Facility
EDT Latitude Longitude Course Direction KTS MPH feet Rate Location/Type
07:31AM 61.0792 -149.2309 108° East  Level FlightAware Approximate
07:32AM 61.0623 -149.1062 102° East  Level FlightAware Approximate
07:32AM 61.3333 -149.6667 105° East 180 207 10,200  Level Anchorage Center
07:33AM 61.0497 -148.9792 102° East  Level FlightAware Approximate
07:33AM 61.3333 -149.5667 90° East 190 219 11,600  Level Anchorage Center
07:34AM 61.0369 -148.8524 102° East  Level FlightAware Approximate
07:34AM 61.3333 -149.4500 90° East 190 219 12,900  Level Anchorage Center
07:35AM 61.0214 -148.7271 105° East  Level FlightAware Approximate
07:35AM 61.3167 -149.3500 109° East 180 207 13,900  Level Anchorage Center
07:36AM 61.0047 -148.6023 105° East  Level FlightAware Approximate
07:36AM 61.3000 -149.2500 109° East 170 196 15,400  Level Anchorage Center
07:37AM 60.9879 -148.4777 105° East  Level FlightAware Approximate
07:37AM 61.2833 -149.1667 113° Southeast 190 219 16,400  Level Anchorage Center
07:38AM 61.2667 -149.0667 109° East 180 207 18,200 1,320 Climbing Anchorage Center
07:39AM 61.2500 -148.9500 106° East 190 219 19,100 900 Climbing Anchorage Center
07:40AM 61.2333 -148.8500 109° East 180 207 20,000 1,020 Climbing Anchorage Center
07:41AM 61.2167 -148.7333 106° East 190 219 21,200 840 Climbing Anchorage Center
07:42AM 61.2000 -148.6333 109° East 190 219 21,700 720 Climbing Anchorage Center
07:43AM 61.2000 -148.5167 90° East 190 219 22,700 600 Climbing Anchorage Center
07:44AM 61.1833 -148.4167 109° East 200 230 23,000 120 Climbing Anchorage Center
07:45AM 61.1667 -148.3000 106° East 210 242 23,000  Level Anchorage Center
07:46AM 61.1500 -148.1833 106° East 230 265 23,000  Level Anchorage Center
07:47AM 61.1167 -148.0500 117° Southeast 240 276 23,000  Level Anchorage Center
07:48AM 61.1000 -147.9167 104° East 230 265 23,000  Level Anchorage Center
07:49AM 61.1000 -147.7833 90° East 240 276 23,000  Level Anchorage Center
07:50AM 61.0667 -147.6333 115° Southeast 260 299 23,000  Level Anchorage Center
07:51AM 61.0500 -147.5000 104° East 230 265 23,000  Level Anchorage Center
07:52AM 61.0333 -147.3667 104° East 240 276 23,000  Level Anchorage Center
07:53AM 61.0167 -147.2333 104° East 240 276 23,000  Level Anchorage Center
07:54AM 60.9833 -147.1000 117° Southeast 250 288 23,000  Level Anchorage Center
07:55AM 60.9667 -146.9667 104° East 240 276 23,000  Level Anchorage Center
07:56AM 60.9500 -146.8333 104° East 240 276 23,000  Level Anchorage Center
07:57AM 60.9167 -146.7000 117° Southeast 240 276 23,000  Level Anchorage Center
07:58AM 60.9000 -146.5833 106° East 250 288 23,000  Level Anchorage Center
07:59AM 60.8833 -146.4333 103° East 250 288 23,000  Level Anchorage Center
08:00AM 60.8667 -146.3000 104° East 240 276 23,000  Level Anchorage Center
08:01AM 60.8500 -146.1667 104° East 240 276 23,000  Level Anchorage Center
08:02AM 60.8167 -146.0333 117° Southeast 240 276 23,000  Level Anchorage Center
08:03AM 60.8000 -145.9167 106° East 230 265 23,000  Level Anchorage Center
08:04AM 60.7833 -145.7833 104° East 240 276 23,000  Level Anchorage Center
08:05AM 60.7500 -145.6500 117° Southeast 240 276 23,000  Level Anchorage Center
08:06AM 60.7333 -145.5167 104° East 240 276 23,000  Level Anchorage Center
08:07AM 60.7167 -145.3833 104° East 250 288 23,000  Level Anchorage Center
08:08AM 60.6833 -145.2667 120° Southeast 240 276 23,000  Level Anchorage Center
08:09AM 60.6667 -145.1333 104° East 240 276 23,000  Level Anchorage Center
08:10AM 60.6500 -145.0000 104° East 240 276 23,000  Level Anchorage Center
08:11AM 60.6167 -144.8667 117° Southeast 240 276 23,000  Level Anchorage Center
08:12AM 60.6000 -144.7500 106° East 230 265 23,000  Level Anchorage Center
08:13AM 60.5833 -144.6167 104° East 240 276 23,000  Level Anchorage Center
08:14AM 60.5500 -144.4833 117° Southeast 240 276 23,000  Level Anchorage Center
08:15AM 60.5333 -144.3667 106° East 240 276 23,000  Level Anchorage Center
08:16AM 60.5000 -144.2333 117° Southeast 230 265 23,000  Level Anchorage Center
08:17AM 60.4833 -144.1167 106° East 230 265 23,000  Level Anchorage Center
08:18AM 60.4500 -144.0000 120° Southeast 250 288 23,000  Level Anchorage Center
08:19AM 60.4333 -143.8667 104° East 230 265 23,000  Level Anchorage Center
08:20AM 60.4000 -143.7500 120° Southeast 240 276 23,000  Level Anchorage Center
08:21AM 60.3833 -143.6167 104° East 230 265 23,000  Level Anchorage Center
08:22AM 60.3500 -143.5000 120° Southeast 250 288 23,000  Level Anchorage Center
08:23AM 60.3333 -143.3667 104° East 240 276 23,000  Level Anchorage Center
08:24AM 60.3167 -143.2333 104° East 240 276 23,000  Level Anchorage Center
08:25AM 60.2833 -143.1167 120° Southeast 240 276 23,000  Level Anchorage Center
08:26AM 60.2667 -142.9833 104° East 240 276 23,000  Level Anchorage Center
08:27AM 60.2333 -142.8667 120° Southeast 240 276 23,000  Level Anchorage Center
08:28AM 60.2167 -142.7333 104° East 250 288 23,100  Climbing Anchorage Center
08:29AM 60.1833 -142.6167 120° Southeast 240 276 23,100 -60 Level Anchorage Center
08:30AM 60.1667 -142.4833 104° East 230 265 23,000 -60 Descending Anchorage Center
08:31AM 60.1333 -142.3667 120° Southeast 240 276 23,000  Level Anchorage Center
08:32AM 60.1167 -142.2333 104° East 240 276 23,000  Level Anchorage Center
08:33AM 60.0833 -142.1167 120° Southeast 250 288 23,100  Climbing Anchorage Center
08:34AM 60.0667 -141.9833 104° East 240 276 23,100  Level Anchorage Center
08:35AM 60.0333 -141.8500 117° Southeast 240 276 23,100  Level Anchorage Center
08:36AM 60.0167 -141.7167 104° East 260 299 23,100 -60 Level Anchorage Center
08:37AM 60.0000 -141.5833 104° East 250 288 23,000 -120 Descending Anchorage Center
08:38AM 59.9667 -141.4667 120° Southeast 250 288 22,900 -720 Descending Anchorage Center
08:39AM 59.9500 -141.3333 104° East 260 299 21,600 -1,500 Descending Anchorage Center
08:40AM 59.9167 -141.2000 116° Southeast 250 288 19,900 -2,040 Descending Anchorage Center
08:41AM 59.8833 -141.0667 116° Southeast 260 299 17,600 -1,980 Descending Anchorage Center
08:42AM 59.8667 -140.9333 104° East 260 299 16,000 -1,500 Descending Anchorage Center
08:43AM 59.8333 -140.8000 116° Southeast 260 299 14,700 -1,260 Descending Anchorage Center
08:44AM 59.8000 -140.6667 116° Southeast 260 299 13,500 -1,200 Descending Anchorage Center
08:45AM 59.7667 -140.5500 120° Southeast 240 276 12,400 -1,080 Descending Anchorage Center
08:46AM 59.7333 -140.4167 116° Southeast 250 288 11,400 -1,140 Descending Anchorage Center
08:47AM 59.7167 -140.2833 104° East 250 288 10,200 -1,260 Descending Anchorage Center
08:48AM 59.6833 -140.1667 119° Southeast 250 288 8,900 -1,560 Descending Anchorage Center
08:49AM 59.6667 -140.0500 106° East 240 276 7,100 -1,740 Descending Anchorage Center
08:50AM 59.6500 -139.9500 108° East 210 242 5,500 -1,860 Descending Anchorage Center
08:51AM 59.6167 -139.8667 128° Southeast 190 219 3,500 -1,440 Descending Anchorage Center
08:53AM 59.5333 -139.7333 141° Southeast 140 161 1,300 -1,020 Descending Anchorage Center
08:54AM 59.5167 -139.6833 123° Southeast 110 127 600 -600 Descending Anchorage Center
08:55AM 59.5000 -139.6500 135° Southeast 40 46 100 -540 Descending Anchorage Center
08:57AM 59.5033 -139.6602 North  Level Estimated
09:04AM 59.5000 -139.6500 North  Level FlightAware Approximate
09:05AM 59.5033 -139.6602 North  Level Estimated
09:06AM 59.5000 -139.6500 North  Level FlightAware Approximate
09:07AM 59.5033 -139.6602 North  Level Estimated
09:08AM 59.5000 -139.6500 North  Level FlightAware Approximate
09:09AM 59.5033 -139.6602 North  Level Estimated
09:10AM 59.5000 -139.6500 North  Level FlightAware Approximate
09:11AM 59.5033 -139.6602 North  Level Estimated